07MI weather

Scott Airstrip
Lake, Michigan, United States

Public forecast

Using degrees Fahrenheit for public forecast. Weather courtesy of forecast.io.

Closest aviation weather report (METAR) to Scott Airstrip

Closest report is Mount Pleasant Municipal Airport, 19.1 nm (35.4 km) SE. Retrieved 2020/01/29 14:35 UTC (0 seconds ago):

KMOP 291435Z AUTO 07004KT 10SM OVC026 M01/M04 A3022 RMK AO2 T10151042

Closest aviation forecast (TAF) to Scott Airstrip

Closest forecast is MBS International Airport, 45.6 nm (84.4 km) ESE. Retrieved 2020/01/29 12:39 UTC (2 hours ago):

TAF KMBS 291136Z 2912/3012 04004KT P6SM SCT018 OVC025 FM291800 06007KT P6SM BKN022 OVC035